LFOA 181530Z AUTO 31012KT 9999 //////TCU 26/14 Q1014 TEMPO SHRA

ElémentsDécodage
LFOA Station météo située sur l'aérodrome de AVORD
181530Z émis le 18 du mois à 15h30 UTC
AUTO Bulletin édité par un automate
31012KT vent du 310°, 12 noeuds
9999 visibilité horizontale supérieure à 10 Km
//////TCU nébulosité (type et hauteur) non disponible
 présence de cumulus congestus
26/14 température 26°C, point de rosée 14°C
 soit une humidité relative de 48%
Q1014 la pression au niveau de la mer (QNH) est de 1014 hPa
TEMPO fluctuation temporaire prévue
SHRA averse(s) de pluie